sensor_id;sensor_type;location;lat;lon;timestamp;P1;durP1;ratioP1;P2;durP2;ratioP2
43996;SDS011;34318;45.818;15.964;2023-10-31T00:00:28;7.63;;;5.00;;
43996;SDS011;34318;45.818;15.964;2023-10-31T00:02:55;9.70;;;5.75;;
43996;SDS011;34318;45.818;15.964;2023-10-31T00:05:23;7.28;;;5.07;;
43996;SDS011;34318;45.818;15.964;2023-10-31T00:07:50;7.38;;;5.60;;
43996;SDS011;34318;45.818;15.964;2023-10-31T00:10:18;7.22;;;5.43;;
43996;SDS011;34318;45.818;15.964;2023-10-31T00:12:45;7.03;;;4.75;;
43996;SDS011;34318;45.818;15.964;2023-10-31T00:15:12;8.40;;;5.63;;
43996;SDS011;34318;45.818;15.964;2023-10-31T00:17:39;7.75;;;5.78;;
43996;SDS011;34318;45.818;15.964;2023-10-31T00:20:07;7.55;;;5.13;;
43996;SDS011;34318;45.818;15.964;2023-10-31T00:22:34;8.30;;;5.38;;
43996;SDS011;34318;45.818;15.964;2023-10-31T00:25:01;7.57;;;5.35;;
43996;SDS011;34318;45.818;15.964;2023-10-31T00:27:29;7.40;;;5.25;;
43996;SDS011;34318;45.818;15.964;2023-10-31T00:29:56;6.07;;;5.32;;
43996;SDS011;34318;45.818;15.964;2023-10-31T00:32:24;8.30;;;5.07;;
43996;SDS011;34318;45.818;15.964;2023-10-31T00:34:52;7.45;;;5.18;;
43996;SDS011;34318;45.818;15.964;2023-10-31T00:37:19;7.13;;;4.97;;
43996;SDS011;34318;45.818;15.964;2023-10-31T00:39:47;8.48;;;4.97;;
43996;SDS011;34318;45.818;15.964;2023-10-31T00:42:14;7.70;;;5.18;;
43996;SDS011;34318;45.818;15.964;2023-10-31T00:44:41;5.60;;;4.28;;
43996;SDS011;34318;45.818;15.964;2023-10-31T00:47:08;7.07;;;4.47;;
43996;SDS011;34318;45.818;15.964;2023-10-31T00:49:36;5.70;;;4.53;;
43996;SDS011;34318;45.818;15.964;2023-10-31T00:52:03;7.43;;;4.88;;
43996;SDS011;34318;45.818;15.964;2023-10-31T00:54:30;8.43;;;4.65;;
43996;SDS011;34318;45.818;15.964;2023-10-31T00:56:57;7.57;;;4.60;;
43996;SDS011;34318;45.818;15.964;2023-10-31T00:59:25;5.75;;;4.28;;
43996;SDS011;34318;45.818;15.964;2023-10-31T01:01:52;8.93;;;5.05;;
43996;SDS011;34318;45.818;15.964;2023-10-31T01:04:19;5.90;;;4.55;;
43996;SDS011;34318;45.818;15.964;2023-10-31T01:06:47;6.90;;;4.18;;
43996;SDS011;34318;45.818;15.964;2023-10-31T01:09:14;7.18;;;4.70;;
43996;SDS011;34318;45.818;15.964;2023-10-31T01:11:41;6.07;;;4.50;;
43996;SDS011;34318;45.818;15.964;2023-10-31T01:14:09;8.70;;;4.78;;
43996;SDS011;34318;45.818;15.964;2023-10-31T01:16:36;5.35;;;4.30;;
43996;SDS011;34318;45.818;15.964;2023-10-31T01:19:03;7.80;;;4.93;;
43996;SDS011;34318;45.818;15.964;2023-10-31T01:21:30;8.23;;;4.95;;
43996;SDS011;34318;45.818;15.964;2023-10-31T01:23:58;7.15;;;3.92;;
43996;SDS011;34318;45.818;15.964;2023-10-31T01:26:25;5.93;;;4.60;;
43996;SDS011;34318;45.818;15.964;2023-10-31T01:28:53;6.10;;;4.53;;
43996;SDS011;34318;45.818;15.964;2023-10-31T01:31:20;4.85;;;3.45;;
43996;SDS011;34318;45.818;15.964;2023-10-31T01:33:47;7.05;;;4.82;;
43996;SDS011;34318;45.818;15.964;2023-10-31T01:36:15;5.82;;;4.38;;
43996;SDS011;34318;45.818;15.964;2023-10-31T01:38:44;5.97;;;4.68;;
43996;SDS011;34318;45.818;15.964;2023-10-31T01:41:12;6.57;;;4.55;;
43996;SDS011;34318;45.818;15.964;2023-10-31T01:43:40;6.55;;;4.20;;
43996;SDS011;34318;45.818;15.964;2023-10-31T01:46:07;5.68;;;4.50;;
43996;SDS011;34318;45.818;15.964;2023-10-31T01:48:35;4.90;;;4.10;;
43996;SDS011;34318;45.818;15.964;2023-10-31T01:51:02;4.78;;;4.28;;
43996;SDS011;34318;45.818;15.964;2023-10-31T01:53:33;7.55;;;4.55;;
43996;SDS011;34318;45.818;15.964;2023-10-31T01:56:01;5.10;;;3.85;;
43996;SDS011;34318;45.818;15.964;2023-10-31T01:58:35;7.22;;;4.38;;
43996;SDS011;34318;45.818;15.964;2023-10-31T02:01:03;5.45;;;3.95;;
43996;SDS011;34318;45.818;15.964;2023-10-31T02:03:32;6.43;;;4.85;;
43996;SDS011;34318;45.818;15.964;2023-10-31T02:06:00;5.50;;;4.07;;
43996;SDS011;34318;45.818;15.964;2023-10-31T02:08:27;4.60;;;3.85;;
43996;SDS011;34318;45.818;15.964;2023-10-31T02:10:54;5.22;;;4.05;;
43996;SDS011;34318;45.818;15.964;2023-10-31T02:13:22;6.95;;;3.65;;
43996;SDS011;34318;45.818;15.964;2023-10-31T02:15:49;4.68;;;3.92;;
43996;SDS011;34318;45.818;15.964;2023-10-31T02:18:16;4.32;;;3.53;;
43996;SDS011;34318;45.818;15.964;2023-10-31T02:20:44;10.43;;;3.53;;
43996;SDS011;34318;45.818;15.964;2023-10-31T02:23:11;4.35;;;3.50;;
43996;SDS011;34318;45.818;15.964;2023-10-31T02:25:38;6.28;;;4.15;;
43996;SDS011;34318;45.818;15.964;2023-10-31T02:28:06;4.90;;;3.72;;
43996;SDS011;34318;45.818;15.964;2023-10-31T02:30:34;3.72;;;3.35;;
43996;SDS011;34318;45.818;15.964;2023-10-31T02:33:02;5.25;;;3.53;;
43996;SDS011;34318;45.818;15.964;2023-10-31T02:35:29;5.60;;;3.90;;
43996;SDS011;34318;45.818;15.964;2023-10-31T02:37:57;4.10;;;3.70;;
43996;SDS011;34318;45.818;15.964;2023-10-31T02:40:24;4.55;;;3.33;;
43996;SDS011;34318;45.818;15.964;2023-10-31T02:42:51;5.40;;;3.40;;
43996;SDS011;34318;45.818;15.964;2023-10-31T02:45:18;4.72;;;3.90;;
43996;SDS011;34318;45.818;15.964;2023-10-31T02:47:46;3.50;;;3.17;;
43996;SDS011;34318;45.818;15.964;2023-10-31T02:50:13;4.30;;;3.53;;
43996;SDS011;34318;45.818;15.964;2023-10-31T02:52:41;4.55;;;3.90;;
43996;SDS011;34318;45.818;15.964;2023-10-31T02:55:08;4.95;;;3.92;;
43996;SDS011;34318;45.818;15.964;2023-10-31T02:57:35;4.70;;;3.83;;
43996;SDS011;34318;45.818;15.964;2023-10-31T03:00:03;4.85;;;3.83;;
43996;SDS011;34318;45.818;15.964;2023-10-31T03:02:30;3.97;;;3.08;;
43996;SDS011;34318;45.818;15.964;2023-10-31T03:04:58;6.03;;;3.72;;
43996;SDS011;34318;45.818;15.964;2023-10-31T03:07:25;4.60;;;3.13;;
43996;SDS011;34318;45.818;15.964;2023-10-31T03:09:52;3.70;;;3.28;;
43996;SDS011;34318;45.818;15.964;2023-10-31T03:12:20;3.80;;;3.30;;
43996;SDS011;34318;45.818;15.964;2023-10-31T03:14:47;4.30;;;3.42;;
43996;SDS011;34318;45.818;15.964;2023-10-31T03:17:15;3.97;;;3.20;;
43996;SDS011;34318;45.818;15.964;2023-10-31T03:19:42;3.83;;;3.42;;
43996;SDS011;34318;45.818;15.964;2023-10-31T03:22:09;5.75;;;3.60;;
43996;SDS011;34318;45.818;15.964;2023-10-31T03:24:37;4.57;;;3.17;;
43996;SDS011;34318;45.818;15.964;2023-10-31T03:27:04;3.72;;;3.00;;
43996;SDS011;34318;45.818;15.964;2023-10-31T03:29:31;4.40;;;3.45;;
43996;SDS011;34318;45.818;15.964;2023-10-31T03:31:58;4.75;;;2.88;;
43996;SDS011;34318;45.818;15.964;2023-10-31T03:34:26;4.10;;;3.20;;
43996;SDS011;34318;45.818;15.964;2023-10-31T03:36:53;3.38;;;3.00;;
43996;SDS011;34318;45.818;15.964;2023-10-31T03:39:20;4.53;;;2.97;;
43996;SDS011;34318;45.818;15.964;2023-10-31T03:41:48;4.20;;;3.33;;
43996;SDS011;34318;45.818;15.964;2023-10-31T03:44:15;4.03;;;3.03;;
43996;SDS011;34318;45.818;15.964;2023-10-31T03:46:42;3.30;;;3.00;;
43996;SDS011;34318;45.818;15.964;2023-10-31T03:49:09;4.03;;;3.42;;
43996;SDS011;34318;45.818;15.964;2023-10-31T03:51:37;3.55;;;2.92;;
43996;SDS011;34318;45.818;15.964;2023-10-31T03:54:04;3.83;;;2.80;;
43996;SDS011;34318;45.818;15.964;2023-10-31T03:56:38;3.38;;;3.08;;
43996;SDS011;34318;45.818;15.964;2023-10-31T03:59:06;2.88;;;2.53;;
43996;SDS011;34318;45.818;15.964;2023-10-31T04:01:33;4.03;;;2.60;;
43996;SDS011;34318;45.818;15.964;2023-10-31T04:04:00;5.95;;;2.78;;
43996;SDS011;34318;45.818;15.964;2023-10-31T04:06:28;2.88;;;2.58;;
43996;SDS011;34318;45.818;15.964;2023-10-31T04:08:55;3.92;;;3.20;;
43996;SDS011;34318;45.818;15.964;2023-10-31T04:11:22;3.70;;;2.75;;
43996;SDS011;34318;45.818;15.964;2023-10-31T04:13:50;4.88;;;3.20;;
43996;SDS011;34318;45.818;15.964;2023-10-31T04:16:17;3.42;;;2.60;;
43996;SDS011;34318;45.818;15.964;2023-10-31T04:18:44;4.35;;;3.10;;
43996;SDS011;34318;45.818;15.964;2023-10-31T04:21:12;3.30;;;3.00;;
43996;SDS011;34318;45.818;15.964;2023-10-31T04:23:39;2.90;;;2.60;;
43996;SDS011;34318;45.818;15.964;2023-10-31T04:26:06;3.00;;;2.70;;
43996;SDS011;34318;45.818;15.964;2023-10-31T04:28:33;4.00;;;2.90;;
43996;SDS011;34318;45.818;15.964;2023-10-31T04:31:01;4.00;;;3.00;;
43996;SDS011;34318;45.818;15.964;2023-10-31T04:33:28;4.93;;;3.55;;
43996;SDS011;34318;45.818;15.964;2023-10-31T04:35:55;4.88;;;3.33;;
43996;SDS011;34318;45.818;15.964;2023-10-31T04:38:22;3.55;;;3.25;;
43996;SDS011;34318;45.818;15.964;2023-10-31T04:40:50;3.33;;;2.75;;
43996;SDS011;34318;45.818;15.964;2023-10-31T04:43:17;4.80;;;3.55;;
43996;SDS011;34318;45.818;15.964;2023-10-31T04:45:44;3.53;;;2.88;;
43996;SDS011;34318;45.818;15.964;2023-10-31T04:48:11;5.60;;;2.70;;
43996;SDS011;34318;45.818;15.964;2023-10-31T04:50:39;2.85;;;2.53;;
43996;SDS011;34318;45.818;15.964;2023-10-31T04:53:07;3.47;;;2.65;;
43996;SDS011;34318;45.818;15.964;2023-10-31T04:55:34;3.20;;;2.90;;
43996;SDS011;34318;45.818;15.964;2023-10-31T04:58:01;2.97;;;2.50;;
43996;SDS011;34318;45.818;15.964;2023-10-31T05:00:28;3.88;;;2.70;;
43996;SDS011;34318;45.818;15.964;2023-10-31T05:02:56;3.88;;;3.20;;
43996;SDS011;34318;45.818;15.964;2023-10-31T05:05:24;4.22;;;2.63;;
43996;SDS011;34318;45.818;15.964;2023-10-31T05:07:51;3.58;;;3.00;;
43996;SDS011;34318;45.818;15.964;2023-10-31T05:10:19;3.53;;;2.83;;
43996;SDS011;34318;45.818;15.964;2023-10-31T05:12:46;3.20;;;2.90;;
43996;SDS011;34318;45.818;15.964;2023-10-31T05:15:13;3.00;;;2.70;;
43996;SDS011;34318;45.818;15.964;2023-10-31T05:17:41;4.63;;;2.95;;
43996;SDS011;34318;45.818;15.964;2023-10-31T05:20:08;3.10;;;2.80;;
43996;SDS011;34318;45.818;15.964;2023-10-31T05:22:37;3.35;;;2.90;;
43996;SDS011;34318;45.818;15.964;2023-10-31T05:25:04;3.10;;;2.80;;
43996;SDS011;34318;45.818;15.964;2023-10-31T05:27:31;3.58;;;2.97;;
43996;SDS011;34318;45.818;15.964;2023-10-31T05:30:00;3.90;;;2.83;;
43996;SDS011;34318;45.818;15.964;2023-10-31T05:32:27;3.08;;;2.75;;
43996;SDS011;34318;45.818;15.964;2023-10-31T05:34:54;3.78;;;3.10;;
43996;SDS011;34318;45.818;15.964;2023-10-31T05:37:25;4.43;;;2.88;;
43996;SDS011;34318;45.818;15.964;2023-10-31T05:39:52;4.78;;;3.22;;
43996;SDS011;34318;45.818;15.964;2023-10-31T05:42:20;2.97;;;2.50;;
43996;SDS011;34318;45.818;15.964;2023-10-31T05:44:47;5.28;;;2.95;;
43996;SDS011;34318;45.818;15.964;2023-10-31T05:47:15;3.30;;;2.70;;
43996;SDS011;34318;45.818;15.964;2023-10-31T05:49:43;3.30;;;2.67;;
43996;SDS011;34318;45.818;15.964;2023-10-31T05:52:10;4.45;;;3.38;;
43996;SDS011;34318;45.818;15.964;2023-10-31T05:54:37;3.55;;;2.97;;
43996;SDS011;34318;45.818;15.964;2023-10-31T05:57:05;4.43;;;3.33;;
43996;SDS011;34318;45.818;15.964;2023-10-31T05:59:32;3.95;;;3.30;;
43996;SDS011;34318;45.818;15.964;2023-10-31T06:01:59;3.25;;;2.80;;
43996;SDS011;34318;45.818;15.964;2023-10-31T06:04:26;3.67;;;3.00;;
43996;SDS011;34318;45.818;15.964;2023-10-31T06:06:54;3.83;;;3.20;;
43996;SDS011;34318;45.818;15.964;2023-10-31T06:09:21;2.70;;;2.47;;
43996;SDS011;34318;45.818;15.964;2023-10-31T06:11:48;4.53;;;2.80;;
43996;SDS011;34318;45.818;15.964;2023-10-31T06:14:15;2.60;;;2.40;;
43996;SDS011;34318;45.818;15.964;2023-10-31T06:16:43;4.22;;;2.90;;
43996;SDS011;34318;45.818;15.964;2023-10-31T06:19:11;2.90;;;2.70;;
43996;SDS011;34318;45.818;15.964;2023-10-31T06:21:38;4.78;;;2.90;;
43996;SDS011;34318;45.818;15.964;2023-10-31T06:24:07;3.47;;;2.95;;
43996;SDS011;34318;45.818;15.964;2023-10-31T06:26:34;3.38;;;2.80;;
43996;SDS011;34318;45.818;15.964;2023-10-31T06:29:01;5.47;;;2.60;;
43996;SDS011;34318;45.818;15.964;2023-10-31T06:31:34;4.07;;;3.15;;
43996;SDS011;34318;45.818;15.964;2023-10-31T06:34:02;3.20;;;2.90;;
43996;SDS011;34318;45.818;15.964;2023-10-31T06:36:30;3.70;;;2.83;;
43996;SDS011;34318;45.818;15.964;2023-10-31T06:38:57;4.32;;;2.58;;
43996;SDS011;34318;45.818;15.964;2023-10-31T06:41:24;4.07;;;3.50;;
43996;SDS011;34318;45.818;15.964;2023-10-31T06:43:52;3.58;;;3.08;;
43996;SDS011;34318;45.818;15.964;2023-10-31T06:46:20;3.15;;;2.47;;
43996;SDS011;34318;45.818;15.964;2023-10-31T06:48:47;3.63;;;2.80;;
43996;SDS011;34318;45.818;15.964;2023-10-31T06:51:14;3.20;;;2.38;;
43996;SDS011;34318;45.818;15.964;2023-10-31T06:53:41;5.43;;;3.13;;
43996;SDS011;34318;45.818;15.964;2023-10-31T06:56:09;3.22;;;2.88;;
43996;SDS011;34318;45.818;15.964;2023-10-31T06:58:36;4.05;;;2.78;;
43996;SDS011;34318;45.818;15.964;2023-10-31T07:01:03;2.75;;;2.47;;
43996;SDS011;34318;45.818;15.964;2023-10-31T07:03:30;4.28;;;2.92;;
43996;SDS011;34318;45.818;15.964;2023-10-31T07:06:02;3.00;;;2.70;;
43996;SDS011;34318;45.818;15.964;2023-10-31T07:08:29;3.58;;;2.70;;
43996;SDS011;34318;45.818;15.964;2023-10-31T07:10:56;4.93;;;2.63;;
43996;SDS011;34318;45.818;15.964;2023-10-31T07:13:27;5.78;;;2.90;;
43996;SDS011;34318;45.818;15.964;2023-10-31T07:15:54;6.07;;;3.42;;
43996;SDS011;34318;45.818;15.964;2023-10-31T07:18:22;5.22;;;3.47;;
43996;SDS011;34318;45.818;15.964;2023-10-31T07:20:49;5.03;;;3.58;;
43996;SDS011;34318;45.818;15.964;2023-10-31T07:23:16;4.78;;;3.30;;
43996;SDS011;34318;45.818;15.964;2023-10-31T07:25:44;5.38;;;3.75;;
43996;SDS011;34318;45.818;15.964;2023-10-31T07:28:12;5.32;;;3.28;;
43996;SDS011;34318;45.818;15.964;2023-10-31T07:30:39;4.07;;;3.13;;
43996;SDS011;34318;45.818;15.964;2023-10-31T07:33:06;4.75;;;3.05;;
43996;SDS011;34318;45.818;15.964;2023-10-31T07:35:34;7.30;;;3.92;;
43996;SDS011;34318;45.818;15.964;2023-10-31T07:38:01;5.43;;;3.67;;
43996;SDS011;34318;45.818;15.964;2023-10-31T07:40:28;4.45;;;3.25;;
43996;SDS011;34318;45.818;15.964;2023-10-31T07:42:56;6.10;;;4.10;;
43996;SDS011;34318;45.818;15.964;2023-10-31T07:45:23;5.88;;;3.75;;
43996;SDS011;34318;45.818;15.964;2023-10-31T07:47:50;8.02;;;4.00;;
43996;SDS011;34318;45.818;15.964;2023-10-31T07:50:18;4.35;;;3.95;;
43996;SDS011;34318;45.818;15.964;2023-10-31T07:52:45;8.57;;;4.82;;
43996;SDS011;34318;45.818;15.964;2023-10-31T07:55:14;6.57;;;3.65;;
43996;SDS011;34318;45.818;15.964;2023-10-31T07:57:41;7.00;;;4.00;;
43996;SDS011;34318;45.818;15.964;2023-10-31T08:00:09;10.75;;;4.28;;
43996;SDS011;34318;45.818;15.964;2023-10-31T08:02:37;7.07;;;4.28;;
43996;SDS011;34318;45.818;15.964;2023-10-31T08:05:05;7.30;;;4.22;;
43996;SDS011;34318;45.818;15.964;2023-10-31T08:07:33;12.60;;;5.88;;
43996;SDS011;34318;45.818;15.964;2023-10-31T08:10:00;16.60;;;7.85;;
43996;SDS011;34318;45.818;15.964;2023-10-31T08:12:27;12.48;;;7.60;;
43996;SDS011;34318;45.818;15.964;2023-10-31T08:14:55;11.25;;;5.18;;
43996;SDS011;34318;45.818;15.964;2023-10-31T08:17:22;11.88;;;6.35;;
43996;SDS011;34318;45.818;15.964;2023-10-31T08:19:49;14.75;;;5.72;;
43996;SDS011;34318;45.818;15.964;2023-10-31T08:22:17;7.25;;;4.50;;
43996;SDS011;34318;45.818;15.964;2023-10-31T08:24:44;6.97;;;4.63;;
43996;SDS011;34318;45.818;15.964;2023-10-31T08:27:11;13.43;;;4.90;;
43996;SDS011;34318;45.818;15.964;2023-10-31T08:29:39;8.13;;;4.28;;
43996;SDS011;34318;45.818;15.964;2023-10-31T08:32:06;8.30;;;4.07;;
43996;SDS011;34318;45.818;15.964;2023-10-31T08:34:33;13.10;;;5.38;;
43996;SDS011;34318;45.818;15.964;2023-10-31T08:37:01;9.43;;;5.03;;
43996;SDS011;34318;45.818;15.964;2023-10-31T08:39:28;9.13;;;4.05;;
43996;SDS011;34318;45.818;15.964;2023-10-31T08:41:57;12.50;;;5.15;;
43996;SDS011;34318;45.818;15.964;2023-10-31T08:44:27;10.18;;;4.35;;
43996;SDS011;34318;45.818;15.964;2023-10-31T08:46:54;7.13;;;4.15;;
43996;SDS011;34318;45.818;15.964;2023-10-31T08:49:21;7.68;;;3.63;;
43996;SDS011;34318;45.818;15.964;2023-10-31T08:51:49;7.88;;;4.00;;
43996;SDS011;34318;45.818;15.964;2023-10-31T08:54:16;10.68;;;3.92;;
43996;SDS011;34318;45.818;15.964;2023-10-31T08:56:43;7.20;;;4.10;;
43996;SDS011;34318;45.818;15.964;2023-10-31T08:59:10;10.85;;;5.07;;
43996;SDS011;34318;45.818;15.964;2023-10-31T09:01:38;7.65;;;4.05;;
43996;SDS011;34318;45.818;15.964;2023-10-31T09:04:05;6.95;;;3.90;;
43996;SDS011;34318;45.818;15.964;2023-10-31T09:06:32;8.35;;;4.43;;
43996;SDS011;34318;45.818;15.964;2023-10-31T09:09:00;7.43;;;4.10;;
43996;SDS011;34318;45.818;15.964;2023-10-31T09:11:27;10.15;;;4.63;;
43996;SDS011;34318;45.818;15.964;2023-10-31T09:13:54;9.05;;;4.15;;
43996;SDS011;34318;45.818;15.964;2023-10-31T09:16:22;7.95;;;3.97;;
43996;SDS011;34318;45.818;15.964;2023-10-31T09:18:49;6.63;;;3.67;;
43996;SDS011;34318;45.818;15.964;2023-10-31T09:21:18;4.85;;;3.28;;
43996;SDS011;34318;45.818;15.964;2023-10-31T09:23:45;4.10;;;3.22;;
43996;SDS011;34318;45.818;15.964;2023-10-31T09:26:13;6.38;;;3.67;;
43996;SDS011;34318;45.818;15.964;2023-10-31T09:28:40;5.50;;;3.22;;
43996;SDS011;34318;45.818;15.964;2023-10-31T09:31:16;9.70;;;3.92;;
43996;SDS011;34318;45.818;15.964;2023-10-31T09:33:44;5.82;;;3.45;;
43996;SDS011;34318;45.818;15.964;2023-10-31T09:36:12;6.22;;;3.55;;
43996;SDS011;34318;45.818;15.964;2023-10-31T09:38:41;5.82;;;3.45;;
43996;SDS011;34318;45.818;15.964;2023-10-31T09:41:08;4.40;;;3.00;;
43996;SDS011;34318;45.818;15.964;2023-10-31T09:43:35;8.65;;;3.53;;
43996;SDS011;34318;45.818;15.964;2023-10-31T09:46:03;9.77;;;3.75;;
43996;SDS011;34318;45.818;15.964;2023-10-31T09:48:32;5.85;;;3.55;;
43996;SDS011;34318;45.818;15.964;2023-10-31T09:50:59;17.25;;;4.10;;
43996;SDS011;34318;45.818;15.964;2023-10-31T09:53:27;8.10;;;3.42;;
43996;SDS011;34318;45.818;15.964;2023-10-31T09:55:55;10.40;;;3.45;;
43996;SDS011;34318;45.818;15.964;2023-10-31T09:58:23;10.07;;;4.68;;
43996;SDS011;34318;45.818;15.964;2023-10-31T10:00:51;6.82;;;3.72;;
43996;SDS011;34318;45.818;15.964;2023-10-31T10:03:18;8.38;;;4.18;;
43996;SDS011;34318;45.818;15.964;2023-10-31T10:05:46;9.38;;;3.60;;
43996;SDS011;34318;45.818;15.964;2023-10-31T10:08:14;8.75;;;3.97;;
43996;SDS011;34318;45.818;15.964;2023-10-31T10:10:42;11.75;;;4.30;;
43996;SDS011;34318;45.818;15.964;2023-10-31T10:13:09;13.35;;;4.45;;
43996;SDS011;34318;45.818;15.964;2023-10-31T10:15:45;8.57;;;4.32;;
43996;SDS011;34318;45.818;15.964;2023-10-31T10:18:25;13.73;;;4.72;;
43996;SDS011;34318;45.818;15.964;2023-10-31T10:20:56;13.48;;;5.10;;
43996;SDS011;34318;45.818;15.964;2023-10-31T10:23:24;12.57;;;4.85;;
43996;SDS011;34318;45.818;15.964;2023-10-31T10:25:52;16.67;;;5.82;;
43996;SDS011;34318;45.818;15.964;2023-10-31T10:28:20;14.40;;;5.43;;
43996;SDS011;34318;45.818;15.964;2023-10-31T10:30:48;13.25;;;5.07;;
43996;SDS011;34318;45.818;15.964;2023-10-31T10:33:16;17.35;;;6.00;;
43996;SDS011;34318;45.818;15.964;2023-10-31T10:35:43;14.82;;;5.88;;
43996;SDS011;34318;45.818;15.964;2023-10-31T10:38:12;17.80;;;6.47;;
43996;SDS011;34318;45.818;15.964;2023-10-31T10:40:40;13.52;;;5.70;;
43996;SDS011;34318;45.818;15.964;2023-10-31T10:43:24;9.70;;;4.40;;
43996;SDS011;34318;45.818;15.964;2023-10-31T10:45:55;18.60;;;6.90;;
43996;SDS011;34318;45.818;15.964;2023-10-31T10:48:23;17.63;;;5.50;;
43996;SDS011;34318;45.818;15.964;2023-10-31T10:50:51;11.77;;;4.82;;
43996;SDS011;34318;45.818;15.964;2023-10-31T10:53:25;14.10;;;4.95;;
43996;SDS011;34318;45.818;15.964;2023-10-31T10:56:03;12.63;;;5.30;;
43996;SDS011;34318;45.818;15.964;2023-10-31T11:01:06;10.23;;;4.53;;
43996;SDS011;34318;45.818;15.964;2023-10-31T11:03:34;13.57;;;4.20;;
43996;SDS011;34318;45.818;15.964;2023-10-31T11:06:02;13.23;;;4.85;;
43996;SDS011;34318;45.818;15.964;2023-10-31T11:08:30;15.82;;;5.15;;
43996;SDS011;34318;45.818;15.964;2023-10-31T11:10:59;9.05;;;4.88;;
43996;SDS011;34318;45.818;15.964;2023-10-31T11:13:26;8.07;;;3.95;;
43996;SDS011;34318;45.818;15.964;2023-10-31T11:15:55;10.43;;;4.60;;
43996;SDS011;34318;45.818;15.964;2023-10-31T11:18:24;11.32;;;4.85;;
43996;SDS011;34318;45.818;15.964;2023-10-31T11:20:52;9.65;;;4.75;;
43996;SDS011;34318;45.818;15.964;2023-10-31T11:23:19;5.72;;;4.18;;
43996;SDS011;34318;45.818;15.964;2023-10-31T11:25:49;14.40;;;5.47;;
43996;SDS011;34318;45.818;15.964;2023-10-31T11:28:21;8.20;;;3.95;;
43996;SDS011;34318;45.818;15.964;2023-10-31T11:30:49;13.05;;;4.82;;
43996;SDS011;34318;45.818;15.964;2023-10-31T11:33:19;11.27;;;4.40;;
43996;SDS011;34318;45.818;15.964;2023-10-31T11:35:50;7.28;;;3.92;;
43996;SDS011;34318;45.818;15.964;2023-10-31T11:38:18;7.40;;;4.15;;
43996;SDS011;34318;45.818;15.964;2023-10-31T11:40:59;11.95;;;4.75;;
43996;SDS011;34318;45.818;15.964;2023-10-31T11:43:49;8.13;;;4.60;;
43996;SDS011;34318;45.818;15.964;2023-10-31T11:46:18;10.73;;;4.45;;
43996;SDS011;34318;45.818;15.964;2023-10-31T11:48:53;9.20;;;4.57;;
43996;SDS011;34318;45.818;15.964;2023-10-31T11:51:22;9.63;;;4.82;;
43996;SDS011;34318;45.818;15.964;2023-10-31T11:53:50;12.32;;;4.40;;
43996;SDS011;34318;45.818;15.964;2023-10-31T11:56:18;9.48;;;4.80;;
43996;SDS011;34318;45.818;15.964;2023-10-31T11:58:54;8.77;;;4.57;;
43996;SDS011;34318;45.818;15.964;2023-10-31T12:01:22;13.88;;;5.70;;
43996;SDS011;34318;45.818;15.964;2023-10-31T12:03:49;15.30;;;5.05;;
43996;SDS011;34318;45.818;15.964;2023-10-31T12:06:18;11.90;;;4.90;;
43996;SDS011;34318;45.818;15.964;2023-10-31T12:08:48;15.32;;;4.93;;
43996;SDS011;34318;45.818;15.964;2023-10-31T12:11:16;8.57;;;4.38;;
43996;SDS011;34318;45.818;15.964;2023-10-31T12:14:00;11.05;;;4.45;;
43996;SDS011;34318;45.818;15.964;2023-10-31T12:16:29;10.75;;;4.30;;
43996;SDS011;34318;45.818;15.964;2023-10-31T12:18:57;6.95;;;4.07;;
43996;SDS011;34318;45.818;15.964;2023-10-31T12:21:38;13.63;;;5.53;;
43996;SDS011;34318;45.818;15.964;2023-10-31T12:24:06;12.85;;;4.32;;
43996;SDS011;34318;45.818;15.964;2023-10-31T12:26:34;9.50;;;4.22;;
43996;SDS011;34318;45.818;15.964;2023-10-31T12:29:11;14.07;;;5.35;;
43996;SDS011;34318;45.818;15.964;2023-10-31T12:31:40;8.82;;;3.70;;
43996;SDS011;34318;45.818;15.964;2023-10-31T12:34:09;12.07;;;4.93;;
43996;SDS011;34318;45.818;15.964;2023-10-31T12:36:36;8.13;;;4.00;;
43996;SDS011;34318;45.818;15.964;2023-10-31T12:39:05;10.80;;;4.90;;
43996;SDS011;34318;45.818;15.964;2023-10-31T12:41:35;6.90;;;3.90;;
43996;SDS011;34318;45.818;15.964;2023-10-31T12:44:03;11.23;;;4.85;;
43996;SDS011;34318;45.818;15.964;2023-10-31T12:46:40;37.10;;;27.95;;
43996;SDS011;34318;45.818;15.964;2023-10-31T12:49:11;212.00;;;99.88;;
43996;SDS011;34318;45.818;15.964;2023-10-31T12:51:58;158.55;;;76.70;;
43996;SDS011;34318;45.818;15.964;2023-10-31T12:57:04;93.97;;;40.90;;
43996;SDS011;34318;45.818;15.964;2023-10-31T12:59:33;81.72;;;38.70;;
43996;SDS011;34318;45.818;15.964;2023-10-31T13:02:00;64.10;;;33.83;;
43996;SDS011;34318;45.818;15.964;2023-10-31T13:04:30;57.35;;;27.05;;
43996;SDS011;34318;45.818;15.964;2023-10-31T13:07:02;36.47;;;19.73;;
43996;SDS011;34318;45.818;15.964;2023-10-31T13:09:30;41.38;;;21.52;;
43996;SDS011;34318;45.818;15.964;2023-10-31T13:11:58;33.20;;;17.67;;
43996;SDS011;34318;45.818;15.964;2023-10-31T13:14:28;29.80;;;16.02;;
43996;SDS011;34318;45.818;15.964;2023-10-31T13:16:55;25.60;;;15.13;;
43996;SDS011;34318;45.818;15.964;2023-10-31T13:19:22;27.17;;;14.20;;
43996;SDS011;34318;45.818;15.964;2023-10-31T13:21:50;23.95;;;11.70;;
43996;SDS011;34318;45.818;15.964;2023-10-31T13:24:17;16.80;;;9.65;;
43996;SDS011;34318;45.818;15.964;2023-10-31T13:26:45;19.52;;;8.75;;
43996;SDS011;34318;45.818;15.964;2023-10-31T13:29:18;25.38;;;11.63;;
43996;SDS011;34318;45.818;15.964;2023-10-31T13:31:45;18.60;;;10.15;;
43996;SDS011;34318;45.818;15.964;2023-10-31T13:34:13;12.43;;;8.10;;
43996;SDS011;34318;45.818;15.964;2023-10-31T13:36:40;16.50;;;8.93;;
43996;SDS011;34318;45.818;15.964;2023-10-31T13:39:07;31.17;;;27.48;;
43996;SDS011;34318;45.818;15.964;2023-10-31T13:41:35;44.95;;;40.25;;
43996;SDS011;34318;45.818;15.964;2023-10-31T13:44:03;48.63;;;43.58;;
43996;SDS011;34318;45.818;15.964;2023-10-31T13:46:30;54.47;;;48.90;;
43996;SDS011;34318;45.818;15.964;2023-10-31T13:48:58;65.63;;;59.08;;
43996;SDS011;34318;45.818;15.964;2023-10-31T13:51:25;72.63;;;65.40;;
43996;SDS011;34318;45.818;15.964;2023-10-31T13:53:52;79.38;;;71.82;;
43996;SDS011;34318;45.818;15.964;2023-10-31T13:56:19;71.78;;;64.72;;
43996;SDS011;34318;45.818;15.964;2023-10-31T13:58:47;74.18;;;67.45;;
43996;SDS011;34318;45.818;15.964;2023-10-31T14:01:14;70.32;;;63.53;;
43996;SDS011;34318;45.818;15.964;2023-10-31T14:03:42;75.13;;;68.40;;
43996;SDS011;34318;45.818;15.964;2023-10-31T14:06:11;68.50;;;62.35;;
43996;SDS011;34318;45.818;15.964;2023-10-31T14:08:39;64.93;;;58.95;;
43996;SDS011;34318;45.818;15.964;2023-10-31T14:11:06;60.30;;;54.40;;
43996;SDS011;34318;45.818;15.964;2023-10-31T14:13:37;65.35;;;59.15;;
43996;SDS011;34318;45.818;15.964;2023-10-31T14:16:06;79.13;;;71.95;;
43996;SDS011;34318;45.818;15.964;2023-10-31T14:18:33;67.95;;;61.92;;
43996;SDS011;34318;45.818;15.964;2023-10-31T14:21:00;73.70;;;67.07;;
43996;SDS011;34318;45.818;15.964;2023-10-31T14:23:28;76.38;;;69.10;;
43996;SDS011;34318;45.818;15.964;2023-10-31T14:25:55;76.38;;;69.30;;
43996;SDS011;34318;45.818;15.964;2023-10-31T14:28:22;82.15;;;74.78;;
43996;SDS011;34318;45.818;15.964;2023-10-31T14:30:50;83.07;;;75.47;;
43996;SDS011;34318;45.818;15.964;2023-10-31T14:33:18;76.40;;;68.97;;
43996;SDS011;34318;45.818;15.964;2023-10-31T14:35:45;80.35;;;72.80;;
43996;SDS011;34318;45.818;15.964;2023-10-31T14:38:13;71.25;;;64.35;;